Kourion — HONA — position and weather

sailwx.info

Track history (hours):
 
Tides and Currents Weather Stations Pressure Air Temp Water Temp Dewpoint Dewpoint Depression Visibility Wind Speed Wind Dir Waves Ship Positions

Kourion

Last reported at 2017-Dec-31 19:44 UTC. Time now 2018-Jan-21 04:57 UTC.
Position N 09°11' W 079°51'.
Warning: this ship's position is 20 days out of date.

Length 183 m; draft 11.5 m.

Type: Tanker. MMSI: 373953000.

Date/timePositionNaut miles runAvg speedWind from/ knotsBaromVisibWave heightAir tempDewpointWater temp
2017-Dec-31 19:44N 09°11' W 079°51'2 9.5
2017-Dec-31 19:30N 09°12' W 079°54'3 5.6
2017-Dec-31 19:00N 09°13' W 079°56'0 0.3
2017-Dec-31 18:26N 09°13' W 079°56'0 0.0
2017-Dec-31 17:59N 09°12' W 079°56'0 0.1
2017-Dec-31 17:29N 09°13' W 079°56'0 0.1
2017-Dec-31 16:59N 09°13' W 079°56'0 0.1
2017-Dec-31 16:29N 09°13' W 079°56'0 0.1
2017-Dec-31 15:59N 09°13' W 079°56'0 0.1
2017-Dec-31 14:50N 09°13' W 079°56'0 0.1
2017-Dec-31 14:29N 09°13' W 079°56'0 0.1
2017-Dec-31 13:59N 09°13' W 079°56'0 0.1
2017-Dec-31 13:29N 09°13' W 079°56'0 0.0
2017-Dec-31 12:59N 09°13' W 079°56'0 0.3
2017-Dec-31 12:30N 09°13' W 079°56'2 3.6
2017-Dec-31 12:00N 09°14' W 079°55'2 3.9
2017-Dec-31 11:30N 09°16' W 079°55'0 0.4
2017-Dec-31 11:00N 09°16' W 079°55'0 0.3
2017-Dec-31 10:30N 09°17' W 079°55'0 0.8
2017-Dec-31 10:00N 09°17' W 079°55'1 2.5
2017-Dec-31 09:30N 09°18' W 079°55'3 5.8
2017-Dec-31 09:00N 09°21' W 079°55'2 4.4
2017-Dec-31 08:30N 09°23' W 079°55'3 6.5
2017-Dec-31 08:00N 09°27' W 079°55'1 1.7
2017-Dec-31 07:30N 09°27' W 079°56'0 0.1
2017-Dec-31 06:58N 09°27' W 079°56'0 0.1
2017-Dec-31 06:28N 09°27' W 079°56'0 0.0
2017-Dec-31 05:58N 09°27' W 079°56'0 0.0
2017-Dec-31 05:28N 09°27' W 079°56'0 0.1
2017-Dec-31 04:58N 09°27' W 079°56'0 0.1
2017-Dec-31 04:28N 09°27' W 079°56'0 0.0
2017-Dec-31 03:58N 09°27' W 079°56'0 0.0
2017-Dec-31 03:28N 09°27' W 079°56'0 0.0
2017-Dec-31 02:58N 09°27' W 079°56'0 0.0
2017-Dec-31 02:28N 09°27' W 079°56'0 0.0
2017-Dec-31 01:58N 09°27' W 079°56'0 0.0
2017-Dec-31 01:28N 09°27' W 079°56'0 0.1
2017-Dec-31 00:58N 09°27' W 079°56'0 0.1
2017-Dec-31 00:28N 09°27' W 079°56'0 0.0
2017-Dec-30 23:58N 09°27' W 079°56'0 0.0
2017-Dec-30 23:28N 09°27' W 079°56'0 0.0
2017-Dec-30 22:58N 09°27' W 079°56'0 0.0
2017-Dec-30 22:28N 09°27' W 079°56'0 0.0
2017-Dec-30 21:58N 09°27' W 079°56'0 0.0
2017-Dec-30 21:28N 09°27' W 079°56'0 0.0
2017-Dec-30 20:55N 09°27' W 079°56'0 0.0
2017-Dec-30 20:28N 09°27' W 079°56'0 0.0
2017-Dec-30 19:58N 09°27' W 079°56'0 0.0
2017-Dec-30 19:28N 09°27' W 079°56'0 0.0
2017-Dec-30 18:58N 09°27' W 079°56'0 0.0
2017-Dec-30 18:28N 09°27' W 079°56'0 0.0
2017-Dec-30 17:58N 09°27' W 079°56'0 0.0
2017-Dec-30 17:28N 09°27' W 079°56'0 0.0
2017-Dec-30 16:58N 09°27' W 079°56'0 0.0
2017-Dec-30 16:28N 09°27' W 079°56'0 0.1
2017-Dec-30 15:58N 09°27' W 079°56'0 0.0
2017-Dec-30 15:28N 09°27' W 079°56'0 0.1
2017-Dec-30 14:58N 09°27' W 079°56'0 0.1
2017-Dec-30 14:28N 09°27' W 079°56'0 0.1
2017-Dec-30 13:58N 09°27' W 079°56'0 0.0
2017-Dec-30 13:30N 09°27' W 079°56'0 0.0
2017-Dec-30 13:00N 09°27' W 079°56'0 0.0
2017-Dec-30 12:30N 09°27' W 079°56'0 0.1
2017-Dec-30 12:00N 09°27' W 079°56'0 0.3
2017-Dec-30 11:30N 09°27' W 079°56'3 5.7
2017-Dec-30 11:00N 09°30' W 079°54'2 4.8
2017-Dec-30 10:30N 09°32' W 079°53'3 6.6
2017-Dec-30 10:00N 09°35' W 079°52'510.3
2017-Dec-30 09:30N 09°40' W 079°52'  
2017-Dec-24 19:55N 29°19' W 094°38'711.8
2017-Dec-24 19:21N 29°21' W 094°45'410.6
2017-Dec-24 19:00N 29°22' W 094°49'4 7.1
2017-Dec-24 18:30N 29°23' W 094°53'  
2017-Dec-22 03:09N 29°22' W 094°53'0 0.0
2017-Dec-22 02:38N 29°22' W 094°53'0 0.0
2017-Dec-22 02:30N 29°22' W 094°53'1 1.1
2017-Dec-22 01:52N 29°23' W 094°53'2 6.4
2017-Dec-22 01:30N 29°22' W 094°51'  
Track history (hours):
 
Tides and Currents Weather Stations Pressure Air Temp Water Temp Dewpoint Dewpoint Depression Visibility Wind Speed Wind Dir Waves Ship Positions

Kourion

Last reported at 2017-Dec-31 19:44 UTC. Time now 2018-Jan-21 04:57 UTC.
Position N 09°11' W 079°51'.
Warning: this ship's position is 20 days out of date.

Length 183 m; draft 11.5 m.

Type: Tanker. MMSI: 373953000.

Date/timePositionNaut miles runAvg speedWind from/ knotsBaromVisibWave heightAir tempDewpointWater temp
2017-Dec-31 19:44N 09°11' W 079°51'2 9.5
2017-Dec-31 19:30N 09°12' W 079°54'3 5.6
2017-Dec-31 19:00N 09°13' W 079°56'0 0.3
2017-Dec-31 18:26N 09°13' W 079°56'0 0.0
2017-Dec-31 17:59N 09°12' W 079°56'0 0.1
2017-Dec-31 17:29N 09°13' W 079°56'0 0.1
2017-Dec-31 16:59N 09°13' W 079°56'0 0.1
2017-Dec-31 16:29N 09°13' W 079°56'0 0.1
2017-Dec-31 15:59N 09°13' W 079°56'0 0.1
2017-Dec-31 14:50N 09°13' W 079°56'0 0.1
2017-Dec-31 14:29N 09°13' W 079°56'0 0.1
2017-Dec-31 13:59N 09°13' W 079°56'0 0.1
2017-Dec-31 13:29N 09°13' W 079°56'0 0.0
2017-Dec-31 12:59N 09°13' W 079°56'0 0.3
2017-Dec-31 12:30N 09°13' W 079°56'2 3.6
2017-Dec-31 12:00N 09°14' W 079°55'2 3.9
2017-Dec-31 11:30N 09°16' W 079°55'0 0.4
2017-Dec-31 11:00N 09°16' W 079°55'0 0.3
2017-Dec-31 10:30N 09°17' W 079°55'0 0.8
2017-Dec-31 10:00N 09°17' W 079°55'1 2.5
2017-Dec-31 09:30N 09°18' W 079°55'3 5.8
2017-Dec-31 09:00N 09°21' W 079°55'2 4.4
2017-Dec-31 08:30N 09°23' W 079°55'3 6.5
2017-Dec-31 08:00N 09°27' W 079°55'1 1.7
2017-Dec-31 07:30N 09°27' W 079°56'0 0.1
2017-Dec-31 06:58N 09°27' W 079°56'0 0.1
2017-Dec-31 06:28N 09°27' W 079°56'0 0.0
2017-Dec-31 05:58N 09°27' W 079°56'0 0.0
2017-Dec-31 05:28N 09°27' W 079°56'0 0.1
2017-Dec-31 04:58N 09°27' W 079°56'0 0.1
2017-Dec-31 04:28N 09°27' W 079°56'0 0.0
2017-Dec-31 03:58N 09°27' W 079°56'0 0.0
2017-Dec-31 03:28N 09°27' W 079°56'0 0.0
2017-Dec-31 02:58N 09°27' W 079°56'0 0.0
2017-Dec-31 02:28N 09°27' W 079°56'0 0.0
2017-Dec-31 01:58N 09°27' W 079°56'0 0.0
2017-Dec-31 01:28N 09°27' W 079°56'0 0.1
2017-Dec-31 00:58N 09°27' W 079°56'0 0.1
2017-Dec-31 00:28N 09°27' W 079°56'0 0.0
2017-Dec-30 23:58N 09°27' W 079°56'0 0.0
2017-Dec-30 23:28N 09°27' W 079°56'0 0.0
2017-Dec-30 22:58N 09°27' W 079°56'0 0.0
2017-Dec-30 22:28N 09°27' W 079°56'0 0.0
2017-Dec-30 21:58N 09°27' W 079°56'0 0.0
2017-Dec-30 21:28N 09°27' W 079°56'0 0.0
2017-Dec-30 20:55N 09°27' W 079°56'0 0.0
2017-Dec-30 20:28N 09°27' W 079°56'0 0.0
2017-Dec-30 19:58N 09°27' W 079°56'0 0.0
2017-Dec-30 19:28N 09°27' W 079°56'0 0.0
2017-Dec-30 18:58N 09°27' W 079°56'0 0.0
2017-Dec-30 18:28N 09°27' W 079°56'0 0.0
2017-Dec-30 17:58N 09°27' W 079°56'0 0.0
2017-Dec-30 17:28N 09°27' W 079°56'0 0.0
2017-Dec-30 16:58N 09°27' W 079°56'0 0.0
2017-Dec-30 16:28N 09°27' W 079°56'0 0.1
2017-Dec-30 15:58N 09°27' W 079°56'0 0.0
2017-Dec-30 15:28N 09°27' W 079°56'0 0.1
2017-Dec-30 14:58N 09°27' W 079°56'0 0.1
2017-Dec-30 14:28N 09°27' W 079°56'0 0.1
2017-Dec-30 13:58N 09°27' W 079°56'0 0.0
2017-Dec-30 13:30N 09°27' W 079°56'0 0.0
2017-Dec-30 13:00N 09°27' W 079°56'0 0.0
2017-Dec-30 12:30N 09°27' W 079°56'0 0.1
2017-Dec-30 12:00N 09°27' W 079°56'0 0.3
2017-Dec-30 11:30N 09°27' W 079°56'3 5.7
2017-Dec-30 11:00N 09°30' W 079°54'2 4.8
2017-Dec-30 10:30N 09°32' W 079°53'3 6.6
2017-Dec-30 10:00N 09°35' W 079°52'510.3
2017-Dec-30 09:30N 09°40' W 079°52'  
2017-Dec-24 19:55N 29°19' W 094°38'711.8
2017-Dec-24 19:21N 29°21' W 094°45'410.6
2017-Dec-24 19:00N 29°22' W 094°49'4 7.1
2017-Dec-24 18:30N 29°23' W 094°53'  
2017-Dec-22 03:09N 29°22' W 094°53'0 0.0
2017-Dec-22 02:38N 29°22' W 094°53'0 0.0
2017-Dec-22 02:30N 29°22' W 094°53'1 1.1
2017-Dec-22 01:52N 29°23' W 094°53'2 6.4
2017-Dec-22 01:30N 29°22' W 094°51'  

Dump ship's entire track history